Amaranth, Pennsylvania
Current Conditions -  °F | °C
As of 2:53 AM on Monday 24 Nov 2014 (Local Time) from KHGR Reporting Station
Overcast Overcast  
Wind Chill: 14°   Ceiling: 700
Heat Index: 14°   Visibility: 10mi
Dew Point: 12°   Wind: 9mph
Humidity: 89%   Direction: 180°S
Pressure: 29.62"   Gusts: NA
Location:  39.7745°N, 78.2026°W
Report Text: KHGR 240753Z AUTO 18008KT 10SM OVC007 14/12 A2962 RMK AO2 RAB00E37 CIG 005V012 SLP037 P0001 T01390122
Loading
Personal Weather Stations






























Interactive Weather Map New forecast layout! Learn more

10-Day Weather Forecast

Advertisements
Track Severe Weather on mobile